createdAt,value
2022-11-12T00:00:16.590Z,100890.44
2022-11-12T00:03:04.020Z,100894.16
2022-11-12T00:05:51.688Z,100900.69
2022-11-12T00:08:38.754Z,100894.44
2022-11-12T00:11:26.075Z,100894.44
2022-11-12T00:14:13.332Z,100891.75
2022-11-12T00:17:02.031Z,100887.50
2022-11-12T00:19:49.364Z,100896.13
2022-11-12T00:22:36.423Z,100901.69
2022-11-12T00:25:23.634Z,100892.59
2022-11-12T00:28:12.056Z,100888.19
2022-11-12T00:30:59.141Z,100883.78
2022-11-12T00:33:47.518Z,100880.94
2022-11-12T00:36:34.397Z,100879.94
2022-11-12T00:39:21.739Z,100868.59
2022-11-12T00:42:09.369Z,100879.09
2022-11-12T00:44:56.571Z,100876.53
2022-11-12T00:47:43.703Z,100882.78
2022-11-12T00:50:32.465Z,100871.97
2022-11-12T00:53:19.642Z,100871.13
2022-11-12T00:56:08.462Z,100878.25
2022-11-12T00:58:55.785Z,100873.25
2022-11-12T01:01:42.911Z,100865.28
2022-11-12T01:04:29.885Z,100860.91
2022-11-12T01:07:18.511Z,100853.50
2022-11-12T01:10:05.937Z,100843.53
2022-11-12T01:12:53.171Z,100848.94
2022-11-12T01:15:43.531Z,100849.09
2022-11-12T01:18:30.748Z,100856.34
2022-11-12T01:21:18.014Z,100860.91
2022-11-12T01:24:07.452Z,100841.69
2022-11-12T01:26:54.556Z,100855.31
2022-11-12T01:29:41.977Z,100846.38
2022-11-12T01:32:29.202Z,100840.13
2022-11-12T01:35:16.352Z,100838.13
2022-11-12T01:38:03.229Z,100845.41
2022-11-12T01:40:52.016Z,100850.94
2022-11-12T01:43:39.191Z,100836.59
2022-11-12T01:46:31.135Z,100838.97
2022-11-12T01:49:23.460Z,100844.53
2022-11-12T01:52:17.331Z,100844.69
2022-11-12T01:55:07.209Z,100829.47
2022-11-12T01:58:06.933Z,100852.78
2022-11-12T02:00:54.490Z,100848.38
2022-11-12T02:03:41.570Z,100860.19
2022-11-12T02:06:28.701Z,100866.56
2022-11-12T02:09:16.223Z,100844.13
2022-11-12T02:12:03.871Z,100851.38
2022-11-12T02:14:51.710Z,100839.03
2022-11-12T02:17:38.649Z,100833.94
2022-11-12T02:20:26.270Z,100848.16
2022-11-12T02:23:14.780Z,100851.13
2022-11-12T02:26:02.471Z,100851.28
2022-11-12T02:28:49.372Z,100853.13
2022-11-12T02:31:37.410Z,100852.13
2022-11-12T02:34:24.511Z,100853.97
2022-11-12T02:37:11.550Z,100853.97
2022-11-12T02:40:00.901Z,100859.53
2022-11-12T02:42:47.868Z,100846.19
2022-11-12T02:45:35.129Z,100848.72
2022-11-12T02:48:22.362Z,100840.47
2022-11-12T02:51:09.990Z,100852.44
2022-11-12T02:53:56.990Z,100845.31
2022-11-12T02:56:45.656Z,100837.91
2022-11-12T02:59:32.581Z,100831.53
2022-11-12T03:02:19.977Z,100833.38
2022-11-12T03:05:07.604Z,100817.34
2022-11-12T03:07:59.267Z,100816.31
2022-11-12T03:10:46.142Z,100814.31
2022-11-12T03:13:35.062Z,100813.47
2022-11-12T03:16:22.091Z,100818.03
2022-11-12T03:19:09.491Z,100823.72
2022-11-12T03:21:56.295Z,100809.22
2022-11-12T03:24:43.649Z,100811.09
2022-11-12T03:27:30.952Z,100812.06
2022-11-12T03:30:20.282Z,100802.28
2022-11-12T03:33:08.780Z,100794.72
2022-11-12T03:35:57.306Z,100790.56
2022-11-12T03:38:44.791Z,100800.53
2022-11-12T03:41:32.116Z,100793.03
2022-11-12T03:44:19.295Z,100795.56
2022-11-12T03:47:08.120Z,100795.41
2022-11-12T03:49:55.190Z,100783.22
2022-11-12T03:52:46.641Z,100789.31
2022-11-12T03:55:33.686Z,100782.22
2022-11-12T03:58:20.907Z,100779.34
2022-11-12T04:01:08.756Z,100773.13
2022-11-12T04:03:57.768Z,100770.41
2022-11-12T04:07:02.474Z,100780.69
2022-11-12T04:09:49.823Z,100777.28
2022-11-12T04:12:54.732Z,100772.13
2022-11-12T04:15:42.387Z,100779.81
2022-11-12T04:18:46.907Z,100767.31
2022-11-12T04:21:58.429Z,100777.59
2022-11-12T04:25:03.580Z,100769.19
2022-11-12T04:27:51.071Z,100758.69
2022-11-12T04:30:37.483Z,100760.91
2022-11-12T04:33:24.828Z,100772.00
2022-11-12T04:36:11.967Z,100762.53
2022-11-12T04:39:01.088Z,100761.53
2022-11-12T04:42:05.901Z,100764.09
2022-11-12T04:45:13.068Z,100745.63
2022-11-12T04:48:00.588Z,100766.63
2022-11-12T04:50:51.427Z,100755.72
2022-11-12T04:53:38.632Z,100747.94
2022-11-12T04:56:27.231Z,100756.25
2022-11-12T04:59:14.725Z,100764.53
2022-11-12T05:02:02.043Z,100759.88
2022-11-12T05:04:49.399Z,100753.38
2022-11-12T05:07:37.366Z,100727.09
2022-11-12T05:10:24.936Z,100734.72
2022-11-12T05:13:13.471Z,100714.84
2022-11-12T05:16:00.963Z,100720.25
2022-11-12T05:18:48.130Z,100700.25
2022-11-12T05:22:01.605Z,100726.09
2022-11-12T05:24:48.925Z,100721.13
2022-11-12T05:27:37.063Z,100695.31
2022-11-12T05:30:25.743Z,100686.75
2022-11-12T05:33:13.241Z,100695.44
2022-11-12T05:36:00.739Z,100710.19
2022-11-12T05:38:48.225Z,100722.69
2022-11-12T05:42:05.904Z,100727.25
2022-11-12T05:44:46.685Z,100719.03
2022-11-12T05:47:35.409Z,100729.31
2022-11-12T05:50:28.234Z,100746.22
2022-11-12T05:53:22.161Z,100734.09
2022-11-12T05:56:10.499Z,100761.75
2022-11-12T05:58:58.119Z,100772.09
2022-11-12T06:01:45.464Z,100760.47
2022-11-12T06:04:35.243Z,100762.72
2022-11-12T06:07:22.414Z,100768.81
2022-11-12T06:10:10.356Z,100755.28
2022-11-12T06:12:57.412Z,100743.34
2022-11-12T06:15:45.040Z,100754.31
2022-11-12T06:18:32.344Z,100757.72
2022-11-12T06:21:22.550Z,100751.72
2022-11-12T06:24:10.122Z,100741.09
2022-11-12T06:26:57.672Z,100751.22
2022-11-12T06:29:46.478Z,100756.31
2022-11-12T06:32:34.331Z,100761.25
2022-11-12T06:35:21.472Z,100760.97
2022-11-12T06:38:10.247Z,100753.72
2022-11-12T06:41:00.746Z,100766.59
2022-11-12T06:43:50.811Z,100780.81
2022-11-12T06:46:38.449Z,100785.91
2022-11-12T06:49:25.499Z,100780.03
2022-11-12T06:52:16.580Z,100805.69
2022-11-12T06:55:11.268Z,100812.19
2022-11-12T06:57:58.269Z,100812.47
2022-11-12T07:00:45.749Z,100818.44
2022-11-12T07:03:32.913Z,100805.91
2022-11-12T07:06:21.555Z,100825.38
2022-11-12T07:09:09.193Z,100816.97
2022-11-12T07:11:58.218Z,100824.53
2022-11-12T07:14:45.377Z,100838.25
2022-11-12T07:17:32.817Z,100845.06
2022-11-12T07:20:20.030Z,100857.28
2022-11-12T07:23:07.380Z,100854.19
2022-11-12T07:25:59.035Z,100849.31
2022-11-12T07:28:47.800Z,100856.19
2022-11-12T07:31:35.542Z,100845.59
2022-11-12T07:34:22.830Z,100857.44
2022-11-12T07:37:09.867Z,100859.03
2022-11-12T07:39:57.396Z,100866.38
2022-11-12T07:42:44.925Z,100854.72
2022-11-12T07:45:33.775Z,100861.28
2022-11-12T07:48:21.117Z,100864.91
2022-11-12T07:51:15.320Z,100872.63
2022-11-12T07:54:02.777Z,100878.34
2022-11-12T07:56:50.272Z,100868.94
2022-11-12T07:59:40.590Z,100880.34
2022-11-12T08:02:32.090Z,100868.38
2022-11-12T08:05:21.558Z,100856.72
2022-11-12T08:08:09.168Z,100867.16
2022-11-12T08:10:57.708Z,100879.81
2022-11-12T08:13:44.935Z,100862.59
2022-11-12T08:16:32.193Z,100869.84
2022-11-12T08:19:21.010Z,100902.41
2022-11-12T08:22:08.651Z,100885.34
2022-11-12T08:24:57.980Z,100883.34
2022-11-12T08:27:45.301Z,100902.13
2022-11-12T08:30:32.782Z,100884.38
2022-11-12T08:33:20.043Z,100916.47
2022-11-12T08:36:10.566Z,100904.53
2022-11-12T08:38:59.899Z,100890.88
2022-11-12T08:41:47.050Z,100893.56
2022-11-12T08:44:34.281Z,100917.03
2022-11-12T08:47:21.581Z,100901.38
2022-11-12T08:50:09.990Z,100896.09
2022-11-12T08:53:03.210Z,100914.88
2022-11-12T08:55:50.465Z,100916.75
2022-11-12T08:58:37.558Z,100913.88
2022-11-12T09:01:24.680Z,100910.19
2022-11-12T09:04:12.332Z,100912.19
2022-11-12T09:06:59.620Z,100912.72
2022-11-12T09:09:48.629Z,100918.25
2022-11-12T09:12:35.995Z,100921.41
2022-11-12T09:15:37.464Z,100903.84
2022-11-12T09:18:26.336Z,100934.75
2022-11-12T09:21:14.315Z,100939.31
2022-11-12T09:24:01.483Z,100942.00
2022-11-12T09:26:49.850Z,100944.25
2022-11-12T09:29:37.233Z,100951.34
2022-11-12T09:32:24.373Z,100964.72
2022-11-12T09:35:12.070Z,100963.28
2022-11-12T09:38:00.429Z,100960.75
2022-11-12T09:41:04.836Z,100959.19
2022-11-12T09:43:55.657Z,100955.03
2022-11-12T09:46:48.704Z,100971.56
2022-11-12T09:49:42.236Z,100955.03
2022-11-12T09:52:31.329Z,100963.28
2022-11-12T09:55:23.340Z,100971.78
2022-11-12T09:58:13.705Z,100980.38
2022-11-12T10:01:08.902Z,100976.19
2022-11-12T10:04:09.651Z,100994.28
2022-11-12T10:07:05.068Z,100994.28
2022-11-12T10:10:03.851Z,100988.56
2022-11-12T10:13:07.931Z,101002.78
2022-11-12T10:16:26.333Z,101002.78
2022-11-12T10:19:39.393Z,101000.75
2022-11-12T10:22:49.631Z,101009.19
2022-11-12T10:25:37.584Z,101017.69
2022-11-12T10:28:38.577Z,101021.81
2022-11-12T10:31:27.708Z,101016.41
2022-11-12T10:34:19.938Z,101028.91
2022-11-12T10:37:09.073Z,101018.09
2022-11-12T10:39:57.510Z,101019.13
2022-11-12T10:43:01.389Z,101027.63
2022-11-12T10:45:50.090Z,101045.84
2022-11-12T10:48:38.598Z,101049.13
2022-11-12T10:51:29.135Z,101050.81
2022-11-12T10:54:30.591Z,101057.06
2022-11-12T10:57:25.371Z,101065.03
2022-11-12T11:00:21.511Z,101074.31
2022-11-12T11:03:18.843Z,101084.81
2022-11-12T11:06:19.751Z,101084.69
2022-11-12T11:09:17.900Z,101083.13
2022-11-12T11:12:05.808Z,101091.78
2022-11-12T11:15:08.664Z,101086.53
2022-11-12T11:17:56.663Z,101083.84
2022-11-12T11:20:49.241Z,101094.47
2022-11-12T11:23:48.501Z,101112.44
2022-11-12T11:26:56.179Z,101119.97
2022-11-12T11:30:01.145Z,101124.53
2022-11-12T11:33:04.703Z,101125.25
2022-11-12T11:36:00.144Z,101126.81
2022-11-12T11:38:58.463Z,101136.59
2022-11-12T11:41:55.562Z,101146.44
2022-11-12T11:44:52.862Z,101135.63
2022-11-12T11:48:00.537Z,101139.72
2022-11-12T11:50:59.103Z,101137.00
2022-11-12T11:53:58.319Z,101123.66
2022-11-12T11:56:46.738Z,101127.22
2022-11-12T11:59:46.002Z,101119.63
2022-11-12T12:03:05.821Z,101131.59
2022-11-12T12:06:10.914Z,101140.03
2022-11-12T12:09:23.798Z,101151.56
2022-11-12T12:12:24.050Z,101156.53
2022-11-12T12:15:31.542Z,101158.78
2022-11-12T12:18:32.823Z,101151.53
2022-11-12T12:21:22.154Z,101146.16
2022-11-12T12:24:16.049Z,101158.25
2022-11-12T12:27:11.657Z,101161.34
2022-11-12T12:30:04.716Z,101162.91
2022-11-12T12:32:56.750Z,101172.59
2022-11-12T12:35:54.144Z,101181.00
2022-11-12T12:38:46.137Z,101182.44
2022-11-12T12:41:41.161Z,101188.41
2022-11-12T12:44:50.374Z,101199.22
2022-11-12T12:47:41.912Z,101206.38
2022-11-12T12:50:29.229Z,101205.66
2022-11-12T12:53:33.188Z,101223.88
2022-11-12T12:56:48.675Z,101219.59
2022-11-12T12:59:37.337Z,101212.63
2022-11-12T13:02:26.704Z,101209.34
2022-11-12T13:05:29.305Z,101226.88
2022-11-12T13:08:24.243Z,101228.16
2022-11-12T13:11:12.291Z,101231.44
2022-11-12T13:14:38.434Z,101228.47
2022-11-12T13:17:50.208Z,101226.06
2022-11-12T13:20:39.784Z,101234.44
2022-11-12T13:24:04.791Z,101227.91
2022-11-12T13:26:54.670Z,101245.84
2022-11-12T13:29:46.708Z,101241.00
2022-11-12T13:32:39.147Z,101251.56
2022-11-12T13:35:34.993Z,101253.53
2022-11-12T13:38:22.716Z,101251.56
2022-11-12T13:41:17.589Z,101264.34
2022-11-12T13:44:08.884Z,101262.06
2022-11-12T13:46:56.540Z,101268.91
2022-11-12T13:49:45.656Z,101272.31
2022-11-12T13:52:35.863Z,101266.06
2022-11-12T13:55:24.201Z,101267.19
2022-11-12T13:58:21.490Z,101276.56
2022-11-12T14:01:09.547Z,101286.09
2022-11-12T14:03:56.744Z,101286.78
2022-11-12T14:06:46.006Z,101292.28
2022-11-12T14:10:01.410Z,101299.22
2022-11-12T14:13:24.129Z,101301.47
2022-11-12T14:16:29.808Z,101304.47
2022-11-12T14:19:50.368Z,101302.03
2022-11-12T14:22:42.408Z,101303.28
2022-11-12T14:25:31.070Z,101311.97
2022-11-12T14:28:29.505Z,101319.78
2022-11-12T14:31:17.237Z,101312.81
2022-11-12T14:34:24.131Z,101326.94
2022-11-12T14:37:37.210Z,101329.63
2022-11-12T14:40:29.089Z,101330.66
2022-11-12T14:43:35.050Z,101326.28
2022-11-12T14:46:26.229Z,101337.81
2022-11-12T14:49:29.029Z,101335.63
2022-11-12T14:52:20.366Z,101330.31
2022-11-12T14:55:12.567Z,101332.00
2022-11-12T14:58:00.363Z,101342.22
2022-11-12T15:00:51.410Z,101351.16
2022-11-12T15:03:38.644Z,101347.22
2022-11-12T15:06:31.719Z,101357.97
2022-11-12T15:09:22.029Z,101364.00
2022-11-12T15:12:14.442Z,101364.00
2022-11-12T15:15:11.672Z,101365.13
2022-11-12T15:18:01.368Z,101372.78
2022-11-12T15:21:05.989Z,101363.25
2022-11-12T15:23:56.974Z,101375.28
2022-11-12T15:26:47.857Z,101381.88
2022-11-12T15:29:36.496Z,101378.72
2022-11-12T15:32:36.309Z,101380.78
2022-11-12T15:39:15.648Z,101391.63
2022-11-12T15:42:03.986Z,101385.00
2022-11-12T15:44:52.387Z,101392.34
2022-11-12T15:47:41.426Z,101388.06
2022-11-12T15:50:29.266Z,101393.34
2022-11-12T15:53:18.072Z,101400.69
2022-11-12T15:56:06.648Z,101397.22
2022-11-12T15:58:53.968Z,101403.38
2022-11-12T16:01:41.032Z,101414.69
2022-11-12T16:04:27.957Z,101406.84
2022-11-12T16:07:15.185Z,101416.28
2022-11-12T16:10:03.798Z,101438.47
2022-11-12T16:12:53.154Z,101439.94
2022-11-12T16:15:40.107Z,101438.69
2022-11-12T16:18:27.327Z,101438.09
2022-11-12T16:21:20.619Z,101441.66
2022-11-12T16:24:09.159Z,101461.25
2022-11-12T16:26:57.882Z,101460.41
2022-11-12T16:29:45.258Z,101450.94
2022-11-12T16:32:32.290Z,101457.59
2022-11-12T16:35:20.422Z,101465.03
2022-11-12T16:38:14.326Z,101464.31
2022-11-12T16:41:01.741Z,101478.16
2022-11-12T16:43:50.236Z,101483.94
2022-11-12T16:46:40.513Z,101488.47
2022-11-12T16:49:27.628Z,101496.75
2022-11-12T16:52:14.843Z,101509.25
2022-11-12T16:55:04.866Z,101507.50
2022-11-12T16:57:52.220Z,101509.31
2022-11-12T17:00:50.220Z,101512.88
2022-11-12T17:03:37.706Z,101512.72
2022-11-12T17:06:32.934Z,101521.88
2022-11-12T17:09:20.413Z,101519.47
2022-11-12T17:12:08.015Z,101527.09
2022-11-12T17:14:55.492Z,101524.41
2022-11-12T17:17:45.720Z,101529.22
2022-11-12T17:20:33.162Z,101528.94
2022-11-12T17:23:20.139Z,101541.69
2022-11-12T17:26:09.660Z,101551.19
2022-11-12T17:29:02.190Z,101559.56
2022-11-12T17:31:53.079Z,101551.50
2022-11-12T17:34:41.740Z,101552.00
2022-11-12T17:37:29.080Z,101560.28
2022-11-12T17:40:17.008Z,101567.97
2022-11-12T17:43:03.788Z,101569.66
2022-11-12T17:45:51.768Z,101575.47
2022-11-12T17:48:39.490Z,101569.66
2022-11-12T17:51:29.738Z,101572.69
2022-11-12T17:54:16.811Z,101588.81
2022-11-12T17:57:04.048Z,101590.78
2022-11-12T17:59:51.548Z,101606.38
2022-11-12T18:02:41.725Z,101593.81
2022-11-12T18:05:33.304Z,101608.75
2022-11-12T18:08:22.023Z,101612.53
2022-11-12T18:11:09.444Z,101621.59
2022-11-12T18:13:57.527Z,101617.06
2022-11-12T18:16:45.010Z,101619.63
2022-11-12T18:19:32.072Z,101612.22
2022-11-12T18:22:21.052Z,101620.53
2022-11-12T18:25:11.110Z,101614.72
2022-11-12T18:27:58.166Z,101619.09
2022-11-12T18:30:45.329Z,101614.06
2022-11-12T18:33:33.446Z,101609.78
2022-11-12T18:36:24.329Z,101612.13
2022-11-12T18:39:11.589Z,101613.72
2022-11-12T18:42:00.340Z,101615.69
2022-11-12T18:44:47.728Z,101613.19
2022-11-12T18:47:35.042Z,101624.06
2022-11-12T18:50:22.436Z,101621.91
2022-11-12T18:53:09.478Z,101626.00
2022-11-12T18:59:34.787Z,101634.59
2022-11-12T19:02:22.587Z,101635.13
2022-11-12T19:05:10.485Z,101631.06
2022-11-12T19:11:40.469Z,101641.59
2022-11-12T19:14:27.787Z,101635.88
2022-11-12T19:17:16.546Z,101644.28
2022-11-12T19:20:04.328Z,101644.38
2022-11-12T19:22:52.188Z,101650.59
2022-11-12T19:25:39.288Z,101656.72
2022-11-12T19:28:26.894Z,101646.09
2022-11-12T19:31:16.947Z,101665.66
2022-11-12T19:34:05.604Z,101664.03
2022-11-12T19:37:11.961Z,101663.81
2022-11-12T19:39:59.755Z,101654.91
2022-11-12T19:42:48.427Z,101663.28
2022-11-12T19:45:35.543Z,101663.28
2022-11-12T19:48:22.608Z,101662.66
2022-11-12T19:51:12.416Z,101662.88
2022-11-12T19:54:00.031Z,101655.97
2022-11-12T19:56:47.165Z,101657.19
2022-11-12T19:59:34.369Z,101652.22
2022-11-12T20:02:21.707Z,101648.59
2022-11-12T20:05:09.871Z,101654.50
2022-11-12T20:07:58.426Z,101662.88
2022-11-12T20:10:46.164Z,101660.63
2022-11-12T20:13:33.689Z,101664.72
2022-11-12T20:16:24.992Z,101668.66
2022-11-12T20:19:13.434Z,101664.81
2022-11-12T20:22:00.844Z,101659.84
2022-11-12T20:24:49.669Z,101658.34
2022-11-12T20:27:37.120Z,101658.31
2022-11-12T20:30:24.446Z,101662.56
2022-11-12T20:33:13.891Z,101663.84
2022-11-12T20:36:05.645Z,101659.56
2022-11-12T20:38:53.663Z,101667.81
2022-11-12T20:41:42.202Z,101677.78
2022-11-12T20:44:29.632Z,101674.13
2022-11-12T20:47:42.031Z,101675.09
2022-11-12T20:50:29.279Z,101669.53
2022-11-12T20:53:16.404Z,101679.31
2022-11-12T20:56:09.430Z,101672.81
2022-11-12T20:58:58.203Z,101693.94
2022-11-12T21:01:45.622Z,101694.16
2022-11-12T21:04:32.423Z,101694.25
2022-11-12T21:07:19.658Z,101705.19
2022-11-12T21:10:07.888Z,101708.16
2022-11-12T21:12:54.879Z,101710.63
2022-11-12T21:15:48.759Z,101709.31
2022-11-12T21:18:55.258Z,101695.25
2022-11-12T21:21:51.886Z,101709.44
2022-11-12T21:24:39.387Z,101706.28
2022-11-12T21:27:26.704Z,101701.88
2022-11-12T21:30:14.060Z,101708.31
2022-11-12T21:33:02.762Z,101710.44
2022-11-12T21:35:53.845Z,101709.53
2022-11-12T21:38:41.685Z,101701.63
2022-11-12T21:41:32.257Z,101699.31
2022-11-12T21:44:19.598Z,101709.19
2022-11-12T21:47:07.074Z,101711.28
2022-11-12T21:49:55.787Z,101724.31
2022-11-12T21:52:42.967Z,101736.06
2022-11-12T21:55:30.565Z,101734.66
2022-11-12T21:58:17.703Z,101731.03
2022-11-12T22:01:09.351Z,101740.31
2022-11-12T22:03:58.060Z,101737.06
2022-11-12T22:06:46.974Z,101734.28
2022-11-12T22:09:34.164Z,101737.75
2022-11-12T22:12:21.596Z,101736.56
2022-11-12T22:15:09.550Z,101735.69
2022-11-12T22:17:58.847Z,101739.59
2022-11-12T22:20:45.878Z,101744.31
2022-11-12T22:23:36.167Z,101742.69
2022-11-12T22:26:25.964Z,101749.38
2022-11-12T22:29:13.343Z,101746.31
2022-11-12T22:32:00.782Z,101740.75
2022-11-12T22:34:49.581Z,101747.28
2022-11-12T22:37:36.646Z,101746.56
2022-11-12T22:40:25.552Z,101750.75
2022-11-12T22:43:12.585Z,101753.69
2022-11-12T22:46:06.618Z,101762.81
2022-11-12T22:48:54.302Z,101771.25
2022-11-12T22:51:42.204Z,101769.13
2022-11-12T22:54:29.340Z,101762.88
2022-11-12T22:57:18.023Z,101770.06
2022-11-12T23:00:09.789Z,101763.50
2022-11-12T23:02:57.186Z,101762.22
2022-11-12T23:05:44.562Z,101772.97
2022-11-12T23:08:32.040Z,101774.88
2022-11-12T23:11:20.533Z,101776.69
2022-11-12T23:14:09.064Z,101776.22
2022-11-12T23:16:59.292Z,101775.16
2022-11-12T23:19:47.174Z,101778.13
2022-11-12T23:22:34.497Z,101779.44
2022-11-12T23:25:21.814Z,101779.63
2022-11-12T23:28:09.012Z,101781.44
2022-11-12T23:30:57.691Z,101777.53
2022-11-12T23:33:48.055Z,101779.97
2022-11-12T23:36:35.121Z,101781.91
2022-11-12T23:39:22.365Z,101774.44
2022-11-12T23:42:09.516Z,101786.03
2022-11-12T23:44:56.763Z,101790.78
2022-11-12T23:47:45.363Z,101784.69
2022-11-12T23:50:32.318Z,101790.72
2022-11-12T23:53:19.961Z,101800.94
2022-11-12T23:56:09.431Z,101791.28
2022-11-12T23:58:56.481Z,101797.97
